North Chittenango, New York
Current Conditions -  °F | °C
As of 1:54 PM on Sunday 23 Nov 2014 (Local Time) from KSYR Reporting Station
Light Rain Light Rain  
Wind Chill: 53°   Ceiling: 5500
Heat Index: 53°   Visibility: 10mi
Dew Point: 40°   Wind: 7mph
Humidity: 61%   Direction: 170°S
Pressure: 30.03"   Gusts: NA
Location:  43.0618°N, 75.8688°W
Report Text: KSYR 231854Z 17006KT 10SM -RA FEW036 BKN055 OVC075 12/04 A3003 RMK AO2 SLP168 P0000 T01170044 $
Loading
Personal Weather Stations






























Interactive Weather Map New forecast layout! Learn more

10-Day Weather Forecast

Advertisements
Track Severe Weather on mobile